sensor_id;sensor_type;location;lat;lon;timestamp;pressure;altitude;pressure_sealevel;temperature
27826;BMP280;15077;49.704;9.908;2023-12-20T00:00:59;98057.94;;;9.85
27826;BMP280;15077;49.704;9.908;2023-12-20T00:03:26;98063.00;;;9.85
27826;BMP280;15077;49.704;9.908;2023-12-20T00:05:51;98060.41;;;9.87
27826;BMP280;15077;49.704;9.908;2023-12-20T00:08:17;98049.47;;;9.86
27826;BMP280;15077;49.704;9.908;2023-12-20T00:10:44;98052.00;;;9.86
27826;BMP280;15077;49.704;9.908;2023-12-20T00:13:10;98051.94;;;9.88
27826;BMP280;15077;49.704;9.908;2023-12-20T00:15:36;98044.41;;;9.86
27826;BMP280;15077;49.704;9.908;2023-12-20T00:18:02;98046.81;;;9.89
27826;BMP280;15077;49.704;9.908;2023-12-20T00:20:29;98035.94;;;9.87
27826;BMP280;15077;49.704;9.908;2023-12-20T00:22:58;98038.34;;;9.90
27826;BMP280;15077;49.704;9.908;2023-12-20T00:25:24;98038.28;;;9.92
27826;BMP280;15077;49.704;9.908;2023-12-20T00:27:50;98037.38;;;9.94
27826;BMP280;15077;49.704;9.908;2023-12-20T00:30:16;98036.50;;;9.95
27826;BMP280;15077;49.704;9.908;2023-12-20T00:32:42;98024.59;;;9.97
27826;BMP280;15077;49.704;9.908;2023-12-20T00:35:14;98028.78;;;9.98
27826;BMP280;15077;49.704;9.908;2023-12-20T00:37:40;98025.38;;;9.99
27826;BMP280;15077;49.704;9.908;2023-12-20T00:40:06;98026.13;;;10.01
27826;BMP280;15077;49.704;9.908;2023-12-20T00:42:32;98010.06;;;10.02
27826;BMP280;15077;49.704;9.908;2023-12-20T00:44:58;98004.94;;;10.04
27826;BMP280;15077;49.704;9.908;2023-12-20T00:47:24;98001.56;;;10.03
27826;BMP280;15077;49.704;9.908;2023-12-20T00:49:50;98004.94;;;10.04
27826;BMP280;15077;49.704;9.908;2023-12-20T00:52:15;98002.41;;;10.04
27826;BMP280;15077;49.704;9.908;2023-12-20T00:54:43;97997.28;;;10.05
27826;BMP280;15077;49.704;9.908;2023-12-20T00:57:09;98001.44;;;10.06
27826;BMP280;15077;49.704;9.908;2023-12-20T00:59:34;97998.84;;;10.08
27826;BMP280;15077;49.704;9.908;2023-12-20T01:02:00;97997.22;;;10.07
27826;BMP280;15077;49.704;9.908;2023-12-20T01:04:26;98000.56;;;10.07
27826;BMP280;15077;49.704;9.908;2023-12-20T01:06:52;98000.50;;;10.09
27826;BMP280;15077;49.704;9.908;2023-12-20T01:09:17;97994.63;;;10.08
27826;BMP280;15077;49.704;9.908;2023-12-20T01:11:44;98006.38;;;10.09
27826;BMP280;15077;49.704;9.908;2023-12-20T01:14:09;97999.63;;;10.10
27826;BMP280;15077;49.704;9.908;2023-12-20T01:16:36;97993.72;;;10.09
27826;BMP280;15077;49.704;9.908;2023-12-20T01:19:04;97991.97;;;10.11
27826;BMP280;15077;49.704;9.908;2023-12-20T01:21:31;97984.38;;;10.11
27826;BMP280;15077;49.704;9.908;2023-12-20T01:24:00;97985.25;;;10.10
27826;BMP280;15077;49.704;9.908;2023-12-20T01:26:30;97986.13;;;10.09
27826;BMP280;15077;49.704;9.908;2023-12-20T01:28:56;97981.16;;;10.06
27826;BMP280;15077;49.704;9.908;2023-12-20T01:31:23;97982.91;;;10.06
27826;BMP280;15077;49.704;9.908;2023-12-20T01:33:49;97982.97;;;10.04
27826;BMP280;15077;49.704;9.908;2023-12-20T01:36:14;97981.28;;;10.03
27826;BMP280;15077;49.704;9.908;2023-12-20T01:38:41;97964.47;;;10.02
27826;BMP280;15077;49.704;9.908;2023-12-20T01:41:06;97972.94;;;10.01
27826;BMP280;15077;49.704;9.908;2023-12-20T01:43:32;97989.03;;;10.00
27826;BMP280;15077;49.704;9.908;2023-12-20T01:45:58;97983.31;;;9.95
27826;BMP280;15077;49.704;9.908;2023-12-20T01:48:24;97980.00;;;9.93
27826;BMP280;15077;49.704;9.908;2023-12-20T01:50:51;97976.59;;;9.94
27826;BMP280;15077;49.704;9.908;2023-12-20T01:53:19;97968.22;;;9.92
27826;BMP280;15077;49.704;9.908;2023-12-20T01:55:47;97962.41;;;9.90
27826;BMP280;15077;49.704;9.908;2023-12-20T01:58:14;97970.00;;;9.90
27826;BMP280;15077;49.704;9.908;2023-12-20T02:00:40;97958.28;;;9.88
27826;BMP280;15077;49.704;9.908;2023-12-20T02:03:06;97964.22;;;9.87
27826;BMP280;15077;49.704;9.908;2023-12-20T02:05:33;97967.59;;;9.87
27826;BMP280;15077;49.704;9.908;2023-12-20T02:07:59;97966.69;;;9.88
27826;BMP280;15077;49.704;9.908;2023-12-20T02:10:25;97975.19;;;9.87
27826;BMP280;15077;49.704;9.908;2023-12-20T02:12:51;97975.19;;;9.87
27826;BMP280;15077;49.704;9.908;2023-12-20T02:15:17;97978.47;;;9.89
27826;BMP280;15077;49.704;9.908;2023-12-20T02:17:43;97981.88;;;9.88
27826;BMP280;15077;49.704;9.908;2023-12-20T02:20:09;97976.81;;;9.88
27826;BMP280;15077;49.704;9.908;2023-12-20T02:22:35;97974.28;;;9.88
27826;BMP280;15077;49.704;9.908;2023-12-20T02:25:01;97969.22;;;9.88
27826;BMP280;15077;49.704;9.908;2023-12-20T02:27:27;97967.66;;;9.86
27826;BMP280;15077;49.704;9.908;2023-12-20T02:29:54;97961.69;;;9.87
27826;BMP280;15077;49.704;9.908;2023-12-20T02:32:21;97971.00;;;9.86
27826;BMP280;15077;49.704;9.908;2023-12-20T02:34:48;97966.81;;;9.85
27826;BMP280;15077;49.704;9.908;2023-12-20T02:37:14;97973.59;;;9.85
27826;BMP280;15077;49.704;9.908;2023-12-20T02:39:39;97972.78;;;9.84
27826;BMP280;15077;49.704;9.908;2023-12-20T02:42:05;97971.88;;;9.85
27826;BMP280;15077;49.704;9.908;2023-12-20T02:44:30;97966.00;;;9.85
27826;BMP280;15077;49.704;9.908;2023-12-20T02:46:56;97966.75;;;9.87
27826;BMP280;15077;49.704;9.908;2023-12-20T02:49:22;97971.00;;;9.86
27826;BMP280;15077;49.704;9.908;2023-12-20T02:51:47;97974.41;;;9.85
27826;BMP280;15077;49.704;9.908;2023-12-20T02:54:13;97970.31;;;9.83
27826;BMP280;15077;49.704;9.908;2023-12-20T02:56:39;97982.13;;;9.82
27826;BMP280;15077;49.704;9.908;2023-12-20T02:59:05;97975.44;;;9.81
27826;BMP280;15077;49.704;9.908;2023-12-20T03:01:31;97975.56;;;9.78
27826;BMP280;15077;49.704;9.908;2023-12-20T03:03:57;97983.16;;;9.78
27826;BMP280;15077;49.704;9.908;2023-12-20T03:06:23;97979.75;;;9.78
27826;BMP280;15077;49.704;9.908;2023-12-20T03:08:48;97978.13;;;9.77
27826;BMP280;15077;49.704;9.908;2023-12-20T03:11:14;97985.69;;;9.78
27826;BMP280;15077;49.704;9.908;2023-12-20T03:13:40;97975.56;;;9.78
27826;BMP280;15077;49.704;9.908;2023-12-20T03:16:09;97984.81;;;9.78
27826;BMP280;15077;49.704;9.908;2023-12-20T03:18:35;97977.31;;;9.76
27826;BMP280;15077;49.704;9.908;2023-12-20T03:21:01;97977.31;;;9.76
27826;BMP280;15077;49.704;9.908;2023-12-20T03:23:27;97970.59;;;9.75
27826;BMP280;15077;49.704;9.908;2023-12-20T03:25:53;97977.41;;;9.73
27826;BMP280;15077;49.704;9.908;2023-12-20T03:28:18;97976.66;;;9.71
27826;BMP280;15077;49.704;9.908;2023-12-20T03:30:44;97981.78;;;9.70
27826;BMP280;15077;49.704;9.908;2023-12-20T03:33:10;97970.84;;;9.69
27826;BMP280;15077;49.704;9.908;2023-12-20T03:35:36;97970.84;;;9.69
27826;BMP280;15077;49.704;9.908;2023-12-20T03:38:02;97970.06;;;9.67
27826;BMP280;15077;49.704;9.908;2023-12-20T03:40:28;97976.84;;;9.67
27826;BMP280;15077;49.704;9.908;2023-12-20T03:42:53;97979.44;;;9.66
27826;BMP280;15077;49.704;9.908;2023-12-20T03:45:19;97987.91;;;9.65
27826;BMP280;15077;49.704;9.908;2023-12-20T03:47:44;97992.97;;;9.65
27826;BMP280;15077;49.704;9.908;2023-12-20T03:50:10;97984.63;;;9.63
27826;BMP280;15077;49.704;9.908;2023-12-20T03:52:36;97967.78;;;9.62
27826;BMP280;15077;49.704;9.908;2023-12-20T03:55:01;97950.25;;;9.57
27826;BMP280;15077;49.704;9.908;2023-12-20T03:57:27;97959.53;;;9.57
27826;BMP280;15077;49.704;9.908;2023-12-20T03:59:53;97952.88;;;9.54
27826;BMP280;15077;49.704;9.908;2023-12-20T04:02:18;97971.53;;;9.52
27826;BMP280;15077;49.704;9.908;2023-12-20T04:04:44;97970.72;;;9.51
27826;BMP280;15077;49.704;9.908;2023-12-20T04:07:09;97971.66;;;9.49
27826;BMP280;15077;49.704;9.908;2023-12-20T04:09:35;97967.50;;;9.48
27826;BMP280;15077;49.704;9.908;2023-12-20T04:12:01;97967.59;;;9.45
27826;BMP280;15077;49.704;9.908;2023-12-20T04:14:26;97967.66;;;9.43
27826;BMP280;15077;49.704;9.908;2023-12-20T04:16:52;97981.13;;;9.44
27826;BMP280;15077;49.704;9.908;2023-12-20T04:19:18;97981.13;;;9.44
27826;BMP280;15077;49.704;9.908;2023-12-20T04:21:43;97973.53;;;9.44
27826;BMP280;15077;49.704;9.908;2023-12-20T04:24:09;97969.22;;;9.46
27826;BMP280;15077;49.704;9.908;2023-12-20T04:26:34;97961.66;;;9.46
27826;BMP280;15077;49.704;9.908;2023-12-20T04:29:00;97975.19;;;9.45
27826;BMP280;15077;49.704;9.908;2023-12-20T04:31:26;97974.34;;;9.44
27826;BMP280;15077;49.704;9.908;2023-12-20T04:33:51;97972.78;;;9.42
27826;BMP280;15077;49.704;9.908;2023-12-20T04:36:17;97957.66;;;9.40
27826;BMP280;15077;49.704;9.908;2023-12-20T04:38:42;97961.06;;;9.39
27826;BMP280;15077;49.704;9.908;2023-12-20T04:41:08;97987.28;;;9.37
27826;BMP280;15077;49.704;9.908;2023-12-20T04:43:33;97976.41;;;9.35
27826;BMP280;15077;49.704;9.908;2023-12-20T04:45:59;97979.00;;;9.33
27826;BMP280;15077;49.704;9.908;2023-12-20T04:48:25;97984.88;;;9.34
27826;BMP280;15077;49.704;9.908;2023-12-20T04:50:50;97987.41;;;9.34
27826;BMP280;15077;49.704;9.908;2023-12-20T04:53:16;97997.50;;;9.34
27826;BMP280;15077;49.704;9.908;2023-12-20T04:55:41;97986.53;;;9.35
27826;BMP280;15077;49.704;9.908;2023-12-20T04:58:08;97984.00;;;9.35
27826;BMP280;15077;49.704;9.908;2023-12-20T05:00:34;97992.47;;;9.34
27826;BMP280;15077;49.704;9.908;2023-12-20T05:03:00;97994.22;;;9.32
27826;BMP280;15077;49.704;9.908;2023-12-20T05:05:26;98006.75;;;9.35
27826;BMP280;15077;49.704;9.908;2023-12-20T05:07:52;98018.59;;;9.34
27826;BMP280;15077;49.704;9.908;2023-12-20T05:10:18;98019.41;;;9.35
27826;BMP280;15077;49.704;9.908;2023-12-20T05:12:43;98026.25;;;9.33
27826;BMP280;15077;49.704;9.908;2023-12-20T05:15:09;98016.19;;;9.31
27826;BMP280;15077;49.704;9.908;2023-12-20T05:17:34;98015.28;;;9.32
27826;BMP280;15077;49.704;9.908;2023-12-20T05:20:00;98022.81;;;9.34
27826;BMP280;15077;49.704;9.908;2023-12-20T05:22:26;98021.19;;;9.33
27826;BMP280;15077;49.704;9.908;2023-12-20T05:24:53;98034.59;;;9.35
27826;BMP280;15077;49.704;9.908;2023-12-20T05:27:18;98032.06;;;9.35
27826;BMP280;15077;49.704;9.908;2023-12-20T05:29:44;98037.06;;;9.36
27826;BMP280;15077;49.704;9.908;2023-12-20T05:32:10;98039.53;;;9.38
27826;BMP280;15077;49.704;9.908;2023-12-20T05:34:35;98042.88;;;9.38
27826;BMP280;15077;49.704;9.908;2023-12-20T05:37:02;98050.41;;;9.40
27826;BMP280;15077;49.704;9.908;2023-12-20T05:39:28;98039.41;;;9.41
27826;BMP280;15077;49.704;9.908;2023-12-20T05:41:54;98054.53;;;9.42
27826;BMP280;15077;49.704;9.908;2023-12-20T05:44:19;98059.53;;;9.44
27826;BMP280;15077;49.704;9.908;2023-12-20T05:46:45;98062.94;;;9.43
27826;BMP280;15077;49.704;9.908;2023-12-20T05:49:10;98063.72;;;9.45
27826;BMP280;15077;49.704;9.908;2023-12-20T05:51:36;98060.34;;;9.44
27826;BMP280;15077;49.704;9.908;2023-12-20T05:54:02;98061.19;;;9.45
27826;BMP280;15077;49.704;9.908;2023-12-20T05:56:27;98064.50;;;9.47
27826;BMP280;15077;49.704;9.908;2023-12-20T05:58:53;98064.50;;;9.47
27826;BMP280;15077;49.704;9.908;2023-12-20T06:01:18;98065.31;;;9.47
27826;BMP280;15077;49.704;9.908;2023-12-20T06:03:44;98073.75;;;9.48
27826;BMP280;15077;49.704;9.908;2023-12-20T06:06:11;98081.22;;;9.51
27826;BMP280;15077;49.704;9.908;2023-12-20T06:08:38;98085.38;;;9.52
27826;BMP280;15077;49.704;9.908;2023-12-20T06:11:04;98081.09;;;9.54
27826;BMP280;15077;49.704;9.908;2023-12-20T06:13:31;98079.34;;;9.56
27826;BMP280;15077;49.704;9.908;2023-12-20T06:15:56;98092.63;;;9.61
27826;BMP280;15077;49.704;9.908;2023-12-20T06:18:22;98098.47;;;9.63
27826;BMP280;15077;49.704;9.908;2023-12-20T06:20:48;98092.47;;;9.65
27826;BMP280;15077;49.704;9.908;2023-12-20T06:23:14;98095.72;;;9.68
27826;BMP280;15077;49.704;9.908;2023-12-20T06:25:39;98091.47;;;9.69
27826;BMP280;15077;49.704;9.908;2023-12-20T06:28:05;98098.09;;;9.73
27826;BMP280;15077;49.704;9.908;2023-12-20T06:30:32;98100.56;;;9.74
27826;BMP280;15077;49.704;9.908;2023-12-20T06:32:58;98098.78;;;9.76
27826;BMP280;15077;49.704;9.908;2023-12-20T06:35:24;98099.56;;;9.78
27826;BMP280;15077;49.704;9.908;2023-12-20T06:37:50;98104.56;;;9.80
27826;BMP280;15077;49.704;9.908;2023-12-20T06:40:15;98110.34;;;9.83
27826;BMP280;15077;49.704;9.908;2023-12-20T06:42:41;98112.00;;;9.84
27826;BMP280;15077;49.704;9.908;2023-12-20T06:45:07;98113.63;;;9.85
27826;BMP280;15077;49.704;9.908;2023-12-20T06:47:33;98115.28;;;9.86
27826;BMP280;15077;49.704;9.908;2023-12-20T06:49:59;98120.22;;;9.89
27826;BMP280;15077;49.704;9.908;2023-12-20T06:52:26;98122.72;;;9.91
27826;BMP280;15077;49.704;9.908;2023-12-20T06:54:52;98123.44;;;9.94
27826;BMP280;15077;49.704;9.908;2023-12-20T06:57:17;98124.16;;;9.98
27826;BMP280;15077;49.704;9.908;2023-12-20T06:59:45;98121.53;;;10.01
27826;BMP280;15077;49.704;9.908;2023-12-20T07:02:10;98124.88;;;10.01
27826;BMP280;15077;49.704;9.908;2023-12-20T07:04:42;98127.34;;;10.03
27826;BMP280;15077;49.704;9.908;2023-12-20T07:07:08;98125.63;;;10.03
27826;BMP280;15077;49.704;9.908;2023-12-20T07:09:33;98134.06;;;10.04
27826;BMP280;15077;49.704;9.908;2023-12-20T07:11:59;98136.53;;;10.05
27826;BMP280;15077;49.704;9.908;2023-12-20T07:14:25;98143.28;;;10.05
27826;BMP280;15077;49.704;9.908;2023-12-20T07:16:51;98141.66;;;10.04
27826;BMP280;15077;49.704;9.908;2023-12-20T07:19:16;98151.72;;;10.05
27826;BMP280;15077;49.704;9.908;2023-12-20T07:21:42;98148.28;;;10.06
27826;BMP280;15077;49.704;9.908;2023-12-20T07:24:08;98160.09;;;10.07
27826;BMP280;15077;49.704;9.908;2023-12-20T07:26:34;98163.50;;;10.06
27826;BMP280;15077;49.704;9.908;2023-12-20T07:29:00;98161.88;;;10.05
27826;BMP280;15077;49.704;9.908;2023-12-20T07:31:26;98164.41;;;10.05
27826;BMP280;15077;49.704;9.908;2023-12-20T07:33:51;98161.88;;;10.05
27826;BMP280;15077;49.704;9.908;2023-12-20T07:36:17;98158.47;;;10.05
27826;BMP280;15077;49.704;9.908;2023-12-20T07:38:43;98167.75;;;10.06
27826;BMP280;15077;49.704;9.908;2023-12-20T07:41:10;98161.88;;;10.05
27826;BMP280;15077;49.704;9.908;2023-12-20T07:43:36;98173.63;;;10.06
27826;BMP280;15077;49.704;9.908;2023-12-20T07:46:06;98179.59;;;10.05
27826;BMP280;15077;49.704;9.908;2023-12-20T07:48:32;98177.94;;;10.04
27826;BMP280;15077;49.704;9.908;2023-12-20T07:50:57;98168.66;;;10.03
27826;BMP280;15077;49.704;9.908;2023-12-20T07:53:23;98187.28;;;10.02
27826;BMP280;15077;49.704;9.908;2023-12-20T07:55:49;98183.97;;;10.00
27826;BMP280;15077;49.704;9.908;2023-12-20T07:58:14;98186.63;;;9.97
27826;BMP280;15077;49.704;9.908;2023-12-20T08:00:40;98189.25;;;9.94
27826;BMP280;15077;49.704;9.908;2023-12-20T08:03:06;98189.34;;;9.91
27826;BMP280;15077;49.704;9.908;2023-12-20T08:05:32;98187.81;;;9.87
27826;BMP280;15077;49.704;9.908;2023-12-20T08:07:58;98193.00;;;9.84
27826;BMP280;15077;49.704;9.908;2023-12-20T08:10:23;98182.13;;;9.81
27826;BMP280;15077;49.704;9.908;2023-12-20T08:12:49;98180.56;;;9.78
27826;BMP280;15077;49.704;9.908;2023-12-20T08:15:15;98171.41;;;9.74
27826;BMP280;15077;49.704;9.908;2023-12-20T08:17:40;98181.66;;;9.71
27826;BMP280;15077;49.704;9.908;2023-12-20T08:20:06;98185.06;;;9.70
27826;BMP280;15077;49.704;9.908;2023-12-20T08:22:32;98181.81;;;9.67
27826;BMP280;15077;49.704;9.908;2023-12-20T08:24:58;98186.94;;;9.66
27826;BMP280;15077;49.704;9.908;2023-12-20T08:27:23;98171.84;;;9.63
27826;BMP280;15077;49.704;9.908;2023-12-20T08:29:51;98180.31;;;9.62
27826;BMP280;15077;49.704;9.908;2023-12-20T08:32:16;98175.38;;;9.59
27826;BMP280;15077;49.704;9.908;2023-12-20T08:34:42;98177.13;;;9.57
27826;BMP280;15077;49.704;9.908;2023-12-20T08:37:07;98179.66;;;9.57
27826;BMP280;15077;49.704;9.908;2023-12-20T08:39:33;98185.53;;;9.57
27826;BMP280;15077;49.704;9.908;2023-12-20T08:41:59;98193.19;;;9.56
27826;BMP280;15077;49.704;9.908;2023-12-20T08:44:24;98199.00;;;9.58
27826;BMP280;15077;49.704;9.908;2023-12-20T08:46:50;98203.19;;;9.59
27826;BMP280;15077;49.704;9.908;2023-12-20T08:49:16;98192.22;;;9.60
27826;BMP280;15077;49.704;9.908;2023-12-20T08:51:42;98189.53;;;9.64
27826;BMP280;15077;49.704;9.908;2023-12-20T08:54:08;98193.72;;;9.64
27826;BMP280;15077;49.704;9.908;2023-12-20T08:56:34;98198.09;;;9.60
27826;BMP280;15077;49.704;9.908;2023-12-20T08:58:59;98203.19;;;9.59
27826;BMP280;15077;49.704;9.908;2023-12-20T09:01:25;98198.91;;;9.61
27826;BMP280;15077;49.704;9.908;2023-12-20T09:03:51;98200.56;;;9.62
27826;BMP280;15077;49.704;9.908;2023-12-20T09:06:16;98195.41;;;9.65
27826;BMP280;15077;49.704;9.908;2023-12-20T09:08:42;98202.00;;;9.68
27826;BMP280;15077;49.704;9.908;2023-12-20T09:11:07;98202.78;;;9.70
27826;BMP280;15077;49.704;9.908;2023-12-20T09:13:33;98190.91;;;9.72
27826;BMP280;15077;49.704;9.908;2023-12-20T09:15:59;98188.28;;;9.75
27826;BMP280;15077;49.704;9.908;2023-12-20T09:18:25;98184.03;;;9.76
27826;BMP280;15077;49.704;9.908;2023-12-20T09:20:50;98184.84;;;9.76
27826;BMP280;15077;49.704;9.908;2023-12-20T09:23:16;98189.91;;;9.76
27826;BMP280;15077;49.704;9.908;2023-12-20T09:25:43;98194.84;;;9.79
27826;BMP280;15077;49.704;9.908;2023-12-20T09:28:10;98194.53;;;9.88
27826;BMP280;15077;49.704;9.908;2023-12-20T09:30:36;98201.66;;;10.02
27826;BMP280;15077;49.704;9.908;2023-12-20T09:33:05;98204.50;;;10.16
27826;BMP280;15077;49.704;9.908;2023-12-20T09:35:32;98221.03;;;10.25
27826;BMP280;15077;49.704;9.908;2023-12-20T09:37:58;98214.88;;;10.31
27826;BMP280;15077;49.704;9.908;2023-12-20T09:40:26;98212.25;;;10.34
27826;BMP280;15077;49.704;9.908;2023-12-20T09:43:04;98206.06;;;10.41
27826;BMP280;15077;49.704;9.908;2023-12-20T09:45:31;98212.50;;;10.49
27826;BMP280;15077;49.704;9.908;2023-12-20T09:47:58;98212.09;;;10.60
27826;BMP280;15077;49.704;9.908;2023-12-20T09:50:24;98216.78;;;10.68
27826;BMP280;15077;49.704;9.908;2023-12-20T09:52:51;98216.56;;;10.74
27826;BMP280;15077;49.704;9.908;2023-12-20T09:55:17;98213.03;;;10.78
27826;BMP280;15077;49.704;9.908;2023-12-20T09:57:45;98204.41;;;10.82
27826;BMP280;15077;49.704;9.908;2023-12-20T10:00:13;98203.53;;;10.83
27826;BMP280;15077;49.704;9.908;2023-12-20T10:02:47;98205.06;;;10.87
27826;BMP280;15077;49.704;9.908;2023-12-20T10:05:17;98198.13;;;10.91
27826;BMP280;15077;49.704;9.908;2023-12-20T10:07:46;98202.41;;;10.90
27826;BMP280;15077;49.704;9.908;2023-12-20T10:10:13;98193.19;;;10.88
27826;BMP280;15077;49.704;9.908;2023-12-20T10:12:39;98197.56;;;10.84
27826;BMP280;15077;49.704;9.908;2023-12-20T10:15:05;98190.84;;;10.83
27826;BMP280;15077;49.704;9.908;2023-12-20T10:17:31;98194.31;;;10.81
27826;BMP280;15077;49.704;9.908;2023-12-20T10:19:57;98191.84;;;10.79
27826;BMP280;15077;49.704;9.908;2023-12-20T10:22:24;98193.63;;;10.77
27826;BMP280;15077;49.704;9.908;2023-12-20T10:24:49;98193.75;;;10.74
27826;BMP280;15077;49.704;9.908;2023-12-20T10:27:17;98178.59;;;10.73
27826;BMP280;15077;49.704;9.908;2023-12-20T10:29:44;98197.22;;;10.72
27826;BMP280;15077;49.704;9.908;2023-12-20T10:32:27;98194.75;;;10.70
27826;BMP280;15077;49.704;9.908;2023-12-20T10:34:54;98186.38;;;10.68
27826;BMP280;15077;49.704;9.908;2023-12-20T10:37:20;98178.03;;;10.66
27826;BMP280;15077;49.704;9.908;2023-12-20T10:39:49;98179.78;;;10.64
27826;BMP280;15077;49.704;9.908;2023-12-20T10:42:18;98169.75;;;10.62
27826;BMP280;15077;49.704;9.908;2023-12-20T10:44:46;98174.06;;;10.60
27826;BMP280;15077;49.704;9.908;2023-12-20T10:47:13;98181.78;;;10.57
27826;BMP280;15077;49.704;9.908;2023-12-20T10:49:39;98181.00;;;10.55
27826;BMP280;15077;49.704;9.908;2023-12-20T10:52:05;98162.56;;;10.51
27826;BMP280;15077;49.704;9.908;2023-12-20T10:54:32;98172.78;;;10.50
27826;BMP280;15077;49.704;9.908;2023-12-20T10:56:58;98166.03;;;10.49
27826;BMP280;15077;49.704;9.908;2023-12-20T10:59:24;98168.63;;;10.47
27826;BMP280;15077;49.704;9.908;2023-12-20T11:01:50;98173.75;;;10.46
27826;BMP280;15077;49.704;9.908;2023-12-20T11:04:23;98167.00;;;10.46
27826;BMP280;15077;49.704;9.908;2023-12-20T11:07:01;98161.88;;;10.48
27826;BMP280;15077;49.704;9.908;2023-12-20T11:09:35;98162.75;;;10.47
27826;BMP280;15077;49.704;9.908;2023-12-20T11:12:10;98166.16;;;10.46
27826;BMP280;15077;49.704;9.908;2023-12-20T11:14:46;98161.16;;;10.44
27826;BMP280;15077;49.704;9.908;2023-12-20T11:17:12;98165.41;;;10.44
27826;BMP280;15077;49.704;9.908;2023-12-20T11:22:31;98162.00;;;10.45
27826;BMP280;15077;49.704;9.908;2023-12-20T11:25:10;98148.44;;;10.46
27826;BMP280;15077;49.704;9.908;2023-12-20T11:27:41;98150.16;;;10.45
27826;BMP280;15077;49.704;9.908;2023-12-20T11:30:07;98153.44;;;10.47
27826;BMP280;15077;49.704;9.908;2023-12-20T11:32:36;98144.09;;;10.49
27826;BMP280;15077;49.704;9.908;2023-12-20T11:37:36;98139.66;;;10.54
27826;BMP280;15077;49.704;9.908;2023-12-20T11:40:07;98128.56;;;10.57
27826;BMP280;15077;49.704;9.908;2023-12-20T11:42:38;98123.31;;;10.61
27826;BMP280;15077;49.704;9.908;2023-12-20T11:45:05;98132.53;;;10.64
27826;BMP280;15077;49.704;9.908;2023-12-20T11:47:31;98132.53;;;10.64
27826;BMP280;15077;49.704;9.908;2023-12-20T11:49:57;98123.19;;;10.64
27826;BMP280;15077;49.704;9.908;2023-12-20T11:52:22;98126.47;;;10.66
27826;BMP280;15077;49.704;9.908;2023-12-20T11:54:48;98117.19;;;10.66
27826;BMP280;15077;49.704;9.908;2023-12-20T11:57:14;98108.69;;;10.67
27826;BMP280;15077;49.704;9.908;2023-12-20T11:59:39;98113.75;;;10.67
27826;BMP280;15077;49.704;9.908;2023-12-20T12:02:05;98115.41;;;10.68
27826;BMP280;15077;49.704;9.908;2023-12-20T12:04:31;98130.63;;;10.68
27826;BMP280;15077;49.704;9.908;2023-12-20T12:06:57;98120.47;;;10.68
27826;BMP280;15077;49.704;9.908;2023-12-20T12:09:22;98115.53;;;10.65
27826;BMP280;15077;49.704;9.908;2023-12-20T12:11:48;98120.59;;;10.65
27826;BMP280;15077;49.704;9.908;2023-12-20T12:14:14;98114.78;;;10.64
27826;BMP280;15077;49.704;9.908;2023-12-20T12:16:42;98115.66;;;10.63
27826;BMP280;15077;49.704;9.908;2023-12-20T12:19:20;98128.44;;;10.60
27826;BMP280;15077;49.704;9.908;2023-12-20T12:21:46;98130.31;;;10.55
27826;BMP280;15077;49.704;9.908;2023-12-20T12:24:12;98117.66;;;10.55
27826;BMP280;15077;49.704;9.908;2023-12-20T12:26:37;98124.50;;;10.53
27826;BMP280;15077;49.704;9.908;2023-12-20T12:29:03;98126.28;;;10.51
27826;BMP280;15077;49.704;9.908;2023-12-20T12:31:29;98121.22;;;10.51
27826;BMP280;15077;49.704;9.908;2023-12-20T12:33:55;98118.69;;;10.51
27826;BMP280;15077;49.704;9.908;2023-12-20T12:36:21;98114.50;;;10.50
27826;BMP280;15077;49.704;9.908;2023-12-20T12:38:47;98121.22;;;10.51
27826;BMP280;15077;49.704;9.908;2023-12-20T12:41:13;98113.56;;;10.52
27826;BMP280;15077;49.704;9.908;2023-12-20T12:43:40;98117.72;;;10.53
27826;BMP280;15077;49.704;9.908;2023-12-20T12:46:06;98121.97;;;10.53
27826;BMP280;15077;49.704;9.908;2023-12-20T12:48:32;98127.97;;;10.50
27826;BMP280;15077;49.704;9.908;2023-12-20T12:50:59;98119.69;;;10.47
27826;BMP280;15077;49.704;9.908;2023-12-20T12:53:25;98131.72;;;10.42
27826;BMP280;15077;49.704;9.908;2023-12-20T12:55:52;98127.59;;;10.39
27826;BMP280;15077;49.704;9.908;2023-12-20T12:58:19;98125.03;;;10.39
27826;BMP280;15077;49.704;9.908;2023-12-20T13:00:44;98120.72;;;10.41
27826;BMP280;15077;49.704;9.908;2023-12-20T13:03:10;98127.41;;;10.44
27826;BMP280;15077;49.704;9.908;2023-12-20T13:05:36;98113.84;;;10.45
27826;BMP280;15077;49.704;9.908;2023-12-20T13:08:01;98123.22;;;10.43
27826;BMP280;15077;49.704;9.908;2023-12-20T13:10:27;98114.03;;;10.40
27826;BMP280;15077;49.704;9.908;2023-12-20T13:12:52;98115.78;;;10.38
27826;BMP280;15077;49.704;9.908;2023-12-20T13:15:18;98112.56;;;10.35
27826;BMP280;15077;49.704;9.908;2023-12-20T13:17:44;98103.13;;;10.38
27826;BMP280;15077;49.704;9.908;2023-12-20T13:20:11;98105.72;;;10.37
27826;BMP280;15077;49.704;9.908;2023-12-20T13:22:37;98098.25;;;10.34
27826;BMP280;15077;49.704;9.908;2023-12-20T13:25:03;98105.09;;;10.32
27826;BMP280;15077;49.704;9.908;2023-12-20T13:27:29;98101.75;;;10.31
27826;BMP280;15077;49.704;9.908;2023-12-20T13:29:54;98095.81;;;10.31
27826;BMP280;15077;49.704;9.908;2023-12-20T13:32:20;98103.47;;;10.29
27826;BMP280;15077;49.704;9.908;2023-12-20T13:34:46;98093.41;;;10.28
27826;BMP280;15077;49.704;9.908;2023-12-20T13:37:12;98083.28;;;10.28
27826;BMP280;15077;49.704;9.908;2023-12-20T13:39:37;98090.81;;;10.29
27826;BMP280;15077;49.704;9.908;2023-12-20T13:42:03;98078.09;;;10.31
27826;BMP280;15077;49.704;9.908;2023-12-20T13:44:29;98078.03;;;10.32
27826;BMP280;15077;49.704;9.908;2023-12-20T13:46:56;98068.81;;;10.31
27826;BMP280;15077;49.704;9.908;2023-12-20T13:49:21;98062.91;;;10.31
27826;BMP280;15077;49.704;9.908;2023-12-20T13:51:51;98030.88;;;10.30
27826;BMP280;15077;49.704;9.908;2023-12-20T13:54:16;98026.69;;;10.29
27826;BMP280;15077;49.704;9.908;2023-12-20T13:56:45;98032.75;;;10.25
27826;BMP280;15077;49.704;9.908;2023-12-20T13:59:11;98028.78;;;10.19
27826;BMP280;15077;49.704;9.908;2023-12-20T14:01:38;98013.69;;;10.17
27826;BMP280;15077;49.704;9.908;2023-12-20T14:04:03;98010.44;;;10.13
27826;BMP280;15077;49.704;9.908;2023-12-20T14:06:29;98027.47;;;10.10
27826;BMP280;15077;49.704;9.908;2023-12-20T14:08:55;98014.88;;;10.08
27826;BMP280;15077;49.704;9.908;2023-12-20T14:11:21;98015.81;;;10.06
27826;BMP280;15077;49.704;9.908;2023-12-20T14:13:46;98011.69;;;10.03
27826;BMP280;15077;49.704;9.908;2023-12-20T14:16:12;97998.28;;;10.01